Time;durP1;ratioP1;P1;durP2;ratioP2;P2;SDS_P1;SDS_P2;PMS_P1;PMS_P2;Temp;Humidity;BMP_temperature;BMP_pressure;BME280_temperature;BME280_humidity;BME280_pressure;Samples;Min_cycle;Max_cycle;Signal;HPM_P1;HPM_P2
2022/12/15 04:22:03;;;;;;;59.60;40.00;;;0.80;99.90;;;;;;6204098;23;20444;-74
2022/12/15 05:33:03;;;;;;;46.80;37.10;;;0.50;99.90;;;;;;6211872;23;20381;-75
2022/12/15 05:35:30;;;;;;;52.10;42.17;;;0.50;99.90;;;;;;6211430;23;20728;-75
2022/12/15 05:37:57;;;;;;;56.50;39.40;;;0.70;99.90;;;;;;6211422;23;20411;-74
2022/12/15 05:40:23;;;;;;;49.87;39.60;;;0.80;99.90;;;;;;6210878;23;20766;-75
2022/12/15 05:42:52;;;;;;;51.30;39.00;;;2.20;99.90;;;;;;6211288;23;20445;-75
2022/12/15 05:45:18;;;;;;;50.00;38.80;;;0.90;99.90;;;;;;6211467;23;20419;-75
2022/12/15 05:47:50;;;;;;;50.90;39.87;;;1.00;99.90;;;;;;6211627;23;20415;-75
2022/12/15 05:50:17;;;;;;;59.13;39.53;;;1.00;99.90;;;;;;6211546;23;20714;-75
2022/12/15 05:52:44;;;;;;;52.07;38.63;;;1.10;99.90;;;;;;6210982;23;20405;-74
2022/12/15 05:55:10;;;;;;;49.47;40.03;;;1.00;99.90;;;;;;6211218;23;20419;-75
2022/12/15 05:57:37;;;;;;;70.00;42.07;;;1.10;99.90;;;;;;6211183;23;20496;-75
2022/12/15 06:00:07;;;;;;;54.47;39.80;;;1.10;99.90;;;;;;6211387;23;20406;-74
2022/12/15 06:02:33;;;;;;;44.43;37.57;;;1.10;99.90;;;;;;6211301;23;20413;-75
2022/12/15 06:05:00;;;;;;;55.17;40.87;;;1.00;99.90;;;;;;6211274;23;20405;-76
2022/12/15 06:07:27;;;;;;;52.13;40.23;;;1.20;99.90;;;;;;6211052;23;20493;-75
2022/12/15 06:09:54;;;;;;;51.73;38.23;;;1.10;99.90;;;;;;6210897;23;20487;-76
2022/12/15 06:12:21;;;;;;;50.27;40.40;;;1.10;99.90;;;;;;6210967;23;20896;-77
2022/12/15 06:14:47;;;;;;;50.70;42.27;;;1.20;99.90;;;;;;6210964;23;20405;-76
2022/12/15 06:17:16;;;;;;;50.83;40.40;;;1.30;99.90;;;;;;6210888;23;20924;-77
2022/12/15 06:19:42;;;;;;;55.03;41.20;;;1.10;99.90;;;;;;6210582;23;20436;-76
2022/12/15 06:22:09;;;;;;;57.90;42.93;;;1.00;99.90;;;;;;6210529;23;20432;-76
2022/12/15 06:24:36;;;;;;;48.60;39.87;;;1.00;99.90;;;;;;6210971;23;20448;-76
2022/12/15 06:27:03;;;;;;;50.10;40.13;;;1.10;99.90;;;;;;6211093;23;20415;-76
2022/12/15 06:29:30;;;;;;;52.90;38.53;;;1.50;99.90;;;;;;6210748;23;20418;-76
2022/12/15 06:31:57;;;;;;;52.47;40.43;;;1.20;99.90;;;;;;6211041;23;20732;-75
2022/12/15 06:34:25;;;;;;;58.40;40.87;;;1.10;99.90;;;;;;6210710;23;20413;-76
2022/12/15 06:36:52;;;;;;;50.53;40.53;;;0.90;99.90;;;;;;6211153;23;20408;-77
2022/12/15 06:39:20;;;;;;;52.67;39.37;;;1.10;99.90;;;;;;6210947;23;20412;-76
2022/12/15 06:41:47;;;;;;;56.03;42.40;;;0.90;99.90;;;;;;6211530;23;20405;-77
2022/12/15 06:44:15;;;;;;;51.50;39.20;;;0.80;99.90;;;;;;6210909;23;20888;-74
2022/12/15 06:46:43;;;;;;;47.00;39.57;;;1.00;99.90;;;;;;6210656;23;20923;-74
2022/12/15 06:49:09;;;;;;;58.77;42.10;;;1.00;99.90;;;;;;6210942;23;20417;-75
2022/12/15 06:51:38;;;;;;;44.63;38.43;;;1.00;99.90;;;;;;6211135;23;20418;-74
2022/12/15 06:54:05;;;;;;;52.00;40.17;;;1.00;99.90;;;;;;6211237;23;20405;-75
2022/12/15 06:56:34;;;;;;;48.30;41.37;;;1.00;99.90;;;;;;6211029;23;20409;-78
2022/12/15 06:59:03;;;;;;;46.77;39.37;;;1.10;99.90;;;;;;6211619;23;20466;-77
2022/12/15 07:01:30;;;;;;;46.63;40.00;;;1.10;99.90;;;;;;6211500;23;20415;-76
2022/12/15 07:03:58;;;;;;;49.47;40.27;;;1.00;99.90;;;;;;6210676;23;20766;-76
2022/12/15 07:06:25;;;;;;;50.20;39.67;;;1.00;99.90;;;;;;6212133;23;20442;-74
2022/12/15 07:08:55;;;;;;;49.43;38.20;;;0.90;99.90;;;;;;6212447;23;20405;-77
2022/12/15 07:11:22;;;;;;;47.50;38.40;;;0.90;99.90;;;;;;6212713;23;20499;-76
2022/12/15 07:13:50;;;;;;;48.93;39.50;;;2.70;99.90;;;;;;6212776;23;20405;-76
2022/12/15 07:16:17;;;;;;;47.60;37.77;;;1.00;99.90;;;;;;6213187;23;20732;-75
2022/12/15 07:18:44;;;;;;;48.70;39.07;;;1.00;99.90;;;;;;6212971;23;20436;-77
2022/12/15 07:21:11;;;;;;;45.70;38.33;;;1.00;99.90;;;;;;6212195;23;20709;-76
2022/12/15 07:23:38;;;;;;;46.83;38.50;;;1.10;99.90;;;;;;6212460;23;20498;-75
2022/12/15 07:26:08;;;;;;;47.00;37.70;;;0.90;99.90;;;;;;6212387;23;20415;-76
2022/12/15 07:28:35;;;;;;;43.47;37.40;;;0.90;99.90;;;;;;6212891;23;20414;-74
2022/12/15 07:31:03;;;;;;;47.87;37.93;;;1.10;99.90;;;;;;6212709;23;20492;-77
2022/12/15 07:33:32;;;;;;;47.47;38.77;;;1.10;99.90;;;;;;6212692;23;20443;-76
2022/12/15 07:35:59;;;;;;;50.23;39.10;;;1.30;99.90;;;;;;6212837;23;20408;-76
2022/12/15 07:38:27;;;;;;;50.57;40.20;;;1.30;99.90;;;;;;6212323;23;20870;-76
2022/12/15 07:40:53;;;;;;;47.53;40.20;;;2.50;99.90;;;;;;6212402;23;20408;-76
2022/12/15 07:43:22;;;;;;;50.33;38.63;;;1.00;99.90;;;;;;6212543;23;20534;-76
2022/12/15 07:45:52;;;;;;;48.10;38.30;;;1.10;99.90;;;;;;6213027;23;20518;-76
2022/12/15 07:48:19;;;;;;;43.90;38.67;;;1.30;99.90;;;;;;6213018;23;20786;-76
2022/12/15 07:50:46;;;;;;;39.00;34.97;;;1.50;99.90;;;;;;6212625;23;20414;-76
2022/12/15 07:53:13;;;;;;;43.83;37.07;;;1.50;99.90;;;;;;6213087;23;20408;-75
2022/12/15 07:55:40;;;;;;;46.70;36.50;;;1.60;99.90;;;;;;6212316;23;20407;-75
2022/12/15 07:58:07;;;;;;;42.70;34.87;;;1.70;99.90;;;;;;6211919;23;20412;-78
2022/12/15 08:00:35;;;;;;;41.77;36.00;;;1.80;99.90;;;;;;6212422;23;20423;-76
2022/12/15 08:03:02;;;;;;;45.57;36.13;;;2.00;99.90;;;;;;6212624;23;20410;-78
2022/12/15 08:05:29;;;;;;;42.93;36.33;;;2.50;99.90;;;;;;6213001;23;20419;-78
2022/12/15 08:07:57;;;;;;;40.07;35.90;;;2.00;99.90;;;;;;6212481;23;20924;-78
2022/12/15 08:10:24;;;;;;;40.40;36.00;;;2.00;99.90;;;;;;6212662;23;20420;-76
2022/12/15 08:12:52;;;;;;;43.30;33.33;;;1.80;99.90;;;;;;6212456;23;20413;-80
2022/12/15 08:15:19;;;;;;;47.80;38.90;;;1.80;99.90;;;;;;6212945;23;20401;-77
2022/12/15 08:17:47;;;;;;;46.20;33.80;;;1.60;99.90;;;;;;6212214;23;20405;-77
2022/12/15 08:20:14;;;;;;;46.90;37.20;;;1.50;99.90;;;;;;6212919;23;20513;-77
2022/12/15 08:22:41;;;;;;;45.23;34.47;;;1.60;99.90;;;;;;6212675;23;20393;-77
2022/12/15 08:25:09;;;;;;;45.37;36.53;;;2.30;99.90;;;;;;6211879;23;20469;-78
2022/12/15 08:27:36;;;;;;;45.90;34.77;;;1.80;99.90;;;;;;6212272;23;20408;-78
2022/12/15 08:30:03;;;;;;;42.77;36.77;;;1.80;99.90;;;;;;6212264;23;20494;-78
2022/12/15 08:32:29;;;;;;;46.10;37.10;;;1.90;99.90;;;;;;6212233;23;20716;-78
2022/12/15 08:34:58;;;;;;;50.73;40.43;;;2.20;99.90;;;;;;6211814;23;20406;-77
2022/12/15 08:37:24;;;;;;;46.57;41.00;;;2.20;99.90;;;;;;6211609;23;20407;-78
2022/12/15 08:39:52;;;;;;;44.70;39.90;;;2.10;99.90;;;;;;6212165;23;20413;-76
2022/12/15 08:42:19;;;;;;;44.67;39.87;;;2.10;99.90;;;;;;6212738;23;20497;-75
2022/12/15 08:44:48;;;;;;;47.27;42.67;;;2.00;99.90;;;;;;6212075;23;20445;-75
2022/12/15 08:47:15;;;;;;;48.40;42.60;;;2.00;99.90;;;;;;6212363;23;20404;-78
2022/12/15 08:49:42;;;;;;;46.97;42.10;;;2.10;99.90;;;;;;6211666;23;20411;-79
2022/12/15 08:52:11;;;;;;;48.70;43.70;;;1.90;99.90;;;;;;6212324;23;20409;-83
2022/12/15 08:54:38;;;;;;;47.20;42.60;;;2.00;99.90;;;;;;6212179;23;20428;-81
2022/12/15 08:57:05;;;;;;;46.23;41.43;;;2.10;99.90;;;;;;6214340;23;20407;-82
2022/12/15 08:59:32;;;;;;;48.60;43.17;;;2.30;99.90;;;;;;6214533;23;20409;-84
2022/12/15 09:01:59;;;;;;;49.10;43.07;;;2.40;99.90;;;;;;6213604;23;20406;-81
2022/12/15 09:04:26;;;;;;;48.87;43.93;;;2.40;99.90;;;;;;6212202;23;20548;-78
2022/12/15 09:06:53;;;;;;;47.73;42.63;;;2.30;99.90;;;;;;6213454;23;20488;-81
2022/12/15 09:09:21;;;;;;;48.07;42.90;;;2.20;99.90;;;;;;6213123;23;20470;-83
2022/12/15 09:11:49;;;;;;;47.57;42.93;;;2.20;99.90;;;;;;6213388;23;20414;-79
2022/12/15 09:14:16;;;;;;;49.70;44.40;;;2.20;99.90;;;;;;6212348;23;20448;-77
2022/12/15 09:16:42;;;;;;;48.53;43.63;;;2.00;99.90;;;;;;6212322;23;20732;-77
2022/12/15 09:19:10;;;;;;;49.37;42.40;;;2.00;99.90;;;;;;6212126;23;20465;-77
2022/12/15 09:21:36;;;;;;;50.10;42.60;;;2.20;99.90;;;;;;6212030;23;20440;-78
2022/12/15 09:24:04;;;;;;;48.00;43.00;;;2.20;99.90;;;;;;6212445;23;20534;-81
2022/12/15 09:26:34;;;;;;;49.50;44.27;;;2.50;99.90;;;;;;6211635;23;20424;-82
2022/12/15 09:29:01;;;;;;;48.03;43.17;;;2.50;99.90;;;;;;6212459;23;20416;-73
2022/12/15 09:31:31;;;;;;;50.37;45.00;;;2.50;99.90;;;;;;6211646;23;20408;-73
2022/12/15 09:34:00;;;;;;;53.30;43.97;;;2.80;99.90;;;;;;6215330;23;20423;-80
2022/12/15 09:36:29;;;;;;;49.10;43.90;;;2.90;99.90;;;;;;6214397;23;20442;-79
2022/12/15 09:38:56;;;;;;;48.30;43.70;;;3.20;99.90;;;;;;6212626;23;20409;-81
2022/12/15 09:41:26;;;;;;;48.00;43.27;;;3.30;99.90;;;;;;6214926;23;20408;-80
2022/12/15 09:43:58;;;;;;;47.70;42.57;;;3.60;99.90;;;;;;6216003;23;20467;-82
2022/12/15 09:46:39;;;;;;;49.40;44.10;;;3.70;99.90;;;;;;6215002;23;20722;-81
2022/12/15 09:49:14;;;;;;;49.57;44.57;;;3.60;99.90;;;;;;6213411;23;20868;-84
2022/12/15 09:51:48;;;;;;;51.60;43.43;;;3.20;99.90;;;;;;6214117;23;20397;-87
2022/12/15 09:54:15;;;;;;;48.57;43.90;;;3.30;99.90;;;;;;6214238;23;20395;-82
2022/12/15 09:56:47;;;;;;;50.83;45.40;;;3.40;99.90;;;;;;6213126;23;20415;-80
2022/12/15 09:59:28;;;;;;;49.53;44.07;;;3.20;99.90;;;;;;6212947;23;20852;-81
2022/12/15 10:02:04;;;;;;;55.33;48.13;;;3.20;99.90;;;;;;6213169;23;20389;-81
2022/12/15 10:04:41;;;;;;;51.23;46.10;;;3.10;99.90;;;;;;6213791;23;20444;-83
2022/12/15 10:07:18;;;;;;;47.87;43.07;;;3.00;99.90;;;;;;6213851;23;20421;-81
2022/12/15 10:09:45;;;;;;;51.47;46.03;;;3.00;99.90;;;;;;6215515;23;20399;-83
2022/12/15 10:12:18;;;;;;;48.50;43.77;;;2.80;99.90;;;;;;6214120;23;20462;-81
2022/12/15 10:14:52;;;;;;;50.23;45.33;;;3.00;99.90;;;;;;6214368;23;20393;-81
2022/12/15 10:17:24;;;;;;;47.97;43.00;;;3.30;99.90;;;;;;6215238;23;20393;-78
2022/12/15 10:19:55;;;;;;;49.17;44.07;;;3.30;99.90;;;;;;6214337;23;20809;-83
2022/12/15 10:22:25;;;;;;;47.13;42.13;;;3.30;99.90;;;;;;6215134;23;20432;-83
2022/12/15 10:24:53;;;;;;;49.60;44.80;;;3.30;99.90;;;;;;6213132;23;20538;-84
2022/12/15 10:27:34;;;;;;;49.57;44.70;;;3.10;99.90;;;;;;6215768;23;20479;-81
2022/12/15 10:30:04;;;;;;;50.27;45.73;;;3.20;99.90;;;;;;6214646;23;20756;-80
2022/12/15 10:32:43;;;;;;;50.67;45.60;;;3.00;99.90;;;;;;6213107;23;20427;-79
2022/12/15 10:35:15;;;;;;;51.40;46.37;;;2.90;99.90;;;;;;6213646;23;20381;-79
2022/12/15 10:37:43;;;;;;;51.47;46.03;;;3.10;99.90;;;;;;6214113;23;20393;-80
2022/12/15 10:40:15;;;;;;;50.30;44.80;;;3.20;99.90;;;;;;6217703;23;20409;-81
2022/12/15 10:42:47;;;;;;;51.07;46.07;;;3.20;99.90;;;;;;6215002;23;20389;-73
2022/12/15 10:45:35;;;;;;;49.27;43.93;;;3.20;99.90;;;;;;6212896;23;20424;-71
2022/12/15 10:48:02;;;;;;;49.23;44.23;;;3.00;99.90;;;;;;6213928;23;20390;-72
2022/12/15 10:50:29;;;;;;;50.03;45.07;;;2.80;99.90;;;;;;6213811;23;20413;-74
2022/12/15 10:52:56;;;;;;;47.33;42.67;;;2.50;99.90;;;;;;6213643;23;20734;-73
2022/12/15 10:55:37;;;;;;;49.30;44.27;;;2.50;99.90;;;;;;6213369;23;20452;-74
2022/12/15 10:58:16;;;;;;;51.40;46.57;;;2.50;99.90;;;;;;6213741;23;20399;-73
2022/12/15 11:00:45;;;;;;;52.90;47.80;;;2.60;99.90;;;;;;6213450;23;20395;-74
2022/12/15 11:03:22;;;;;;;48.33;43.47;;;2.60;99.90;;;;;;6213534;23;20506;-73
2022/12/15 11:05:52;;;;;;;50.53;45.30;;;2.70;99.90;;;;;;6211366;23;20809;-73
2022/12/15 11:08:21;;;;;;;50.73;46.23;;;2.90;99.90;;;;;;6213340;23;20458;-73
2022/12/15 11:13:37;;;;;;;51.50;46.10;;;3.00;99.90;;;;;;6213359;23;20380;-74
2022/12/15 11:16:15;;;;;;;45.47;41.27;;;3.10;99.90;;;;;;6213157;23;20407;-74
2022/12/15 11:18:45;;;;;;;46.10;41.73;;;3.30;99.90;;;;;;6212956;23;20390;-73
2022/12/15 11:21:20;;;;;;;48.50;43.83;;;3.40;99.90;;;;;;6212518;23;20432;-74
2022/12/15 11:24:01;;;;;;;47.73;42.70;;;3.70;99.90;;;;;;6213566;23;20393;-73
2022/12/15 11:26:42;;;;;;;50.80;45.70;;;3.50;99.90;;;;;;6211938;23;20396;-73
2022/12/15 11:29:18;;;;;;;50.57;45.80;;;3.80;99.90;;;;;;6212238;23;20385;-73
2022/12/15 11:31:47;;;;;;;49.57;45.07;;;4.00;99.90;;;;;;6213895;23;20393;-86
2022/12/15 11:34:16;;;;;;;50.20;45.20;;;4.00;99.90;;;;;;6223223;23;20404;-86
2022/12/15 11:40:29;;;;;;;47.67;43.20;;;4.10;99.90;;;;;;6126911;23;20489;-84
2022/12/15 11:43:09;;;;;;;47.97;43.23;;;4.00;99.90;;;;;;6199148;23;20486;-85
2022/12/15 11:45:46;;;;;;;47.70;43.23;;;3.90;99.90;;;;;;6215167;23;20975;-82
2022/12/15 11:48:17;;;;;;;46.60;41.83;;;4.20;99.90;;;;;;6218089;23;20403;-83
2022/12/15 11:50:53;;;;;;;46.27;41.97;;;4.10;99.90;;;;;;6216427;23;20476;-84
2022/12/15 11:53:54;;;;;;;48.17;43.57;;;4.10;99.90;;;;;;6216534;23;20393;-85
2022/12/15 11:56:28;;;;;;;47.57;43.07;;;4.10;99.90;;;;;;6215474;23;20405;-86
2022/12/15 11:59:39;;;;;;;47.43;42.47;;;4.10;99.90;;;;;;6216938;23;20400;-87
2022/12/15 12:02:30;;;;;;;46.73;42.40;;;4.10;99.90;;;;;;6216599;23;20393;-85
2022/12/15 12:05:21;;;;;;;46.90;42.40;;;4.20;99.90;;;;;;6215569;23;20428;-88
2022/12/15 12:07:51;;;;;;;46.27;41.97;;;4.20;99.90;;;;;;6216812;23;20396;-86
2022/12/15 12:10:31;;;;;;;46.50;41.80;;;3.80;99.90;;;;;;6216578;23;20407;-88
2022/12/15 12:13:09;;;;;;;46.20;41.43;;;3.40;99.90;;;;;;6217123;23;20388;-84
2022/12/15 12:15:45;;;;;;;47.67;43.47;;;3.00;99.90;;;;;;6217390;23;20391;-83
2022/12/15 12:18:19;;;;;;;47.87;43.13;;;3.10;99.90;;;;;;6217669;23;20391;-85
2022/12/15 12:20:49;;;;;;;46.87;42.47;;;3.00;99.90;;;;;;6218300;23;20502;-84
2022/12/15 12:23:20;;;;;;;47.73;43.07;;;3.20;99.90;;;;;;6219173;23;20482;-83
2022/12/15 12:25:58;;;;;;;47.50;42.60;;;3.20;99.90;;;;;;6218520;23;20498;-83
2022/12/15 12:28:32;;;;;;;49.00;44.30;;;3.20;99.90;;;;;;6219730;23;20801;-86
2022/12/15 12:31:01;;;;;;;47.80;43.17;;;3.40;99.90;;;;;;6220069;23;20394;-86
2022/12/15 12:33:37;;;;;;;42.90;38.83;;;3.50;99.90;;;;;;6221307;23;20467;-88
2022/12/15 12:36:11;;;;;;;43.20;39.20;;;3.60;99.90;;;;;;6225927;23;20408;-85
2022/12/15 12:38:44;;;;;;;42.13;38.13;;;3.80;99.90;;;;;;6224911;23;20419;-83
2022/12/15 12:41:19;;;;;;;43.83;39.70;;;3.80;99.90;;;;;;6220953;23;20400;-81
2022/12/15 12:43:50;;;;;;;40.87;37.17;;;3.80;99.90;;;;;;6226096;23;20388;-82
2022/12/15 12:46:21;;;;;;;41.50;37.50;;;4.10;99.90;;;;;;6221047;23;20441;-82
2022/12/15 12:48:55;;;;;;;41.43;37.70;;;4.50;99.90;;;;;;6222582;23;20469;-80
2022/12/15 12:51:29;;;;;;;42.40;38.20;;;4.70;99.90;;;;;;6220882;23;20396;-81
2022/12/15 12:53:57;;;;;;;41.67;38.00;;;4.70;99.90;;;;;;6219055;23;20393;-81
2022/12/15 12:56:37;;;;;;;37.67;34.37;;;5.20;99.90;;;;;;6220019;23;20408;-82
2022/12/15 12:59:25;;;;;;;38.33;35.10;;;5.20;99.90;;;;;;6220756;23;20396;-78
2022/12/15 13:01:54;;;;;;;42.27;38.33;;;4.80;99.90;;;;;;6221203;23;20503;-81
2022/12/15 13:04:40;;;;;;;39.13;35.37;;;4.80;99.90;;;;;;6220468;23;20409;-80
2022/12/15 13:07:30;;;;;;;40.60;36.83;;;4.60;99.90;;;;;;6217892;23;20385;-81
2022/12/15 13:10:12;;;;;;;39.13;35.27;;;4.50;99.90;;;;;;6219894;23;20480;-80
2022/12/15 13:12:47;;;;;;;40.03;36.23;;;4.40;99.90;;;;;;6215720;23;20705;-79
2022/12/15 13:15:29;;;;;;;38.93;35.10;;;4.40;99.90;;;;;;6217026;23;20389;-78
2022/12/15 13:17:59;;;;;;;39.13;35.47;;;4.30;99.90;;;;;;6216861;23;20609;-79
2022/12/15 13:20:27;;;;;;;40.47;36.20;;;4.10;99.90;;;;;;6216435;23;20445;-79
2022/12/15 13:23:11;;;;;;;39.50;35.60;;;4.20;99.90;;;;;;6215133;23;20452;-81
2022/12/15 13:25:43;;;;;;;39.93;35.93;;;3.90;99.90;;;;;;6215448;23;20447;-81
2022/12/15 13:28:25;;;;;;;40.10;36.10;;;3.80;99.90;;;;;;6216762;23;20964;-81
2022/12/15 13:31:26;;;;;;;40.43;36.40;;;3.50;99.90;;;;;;6215039;23;20911;-80
2022/12/15 13:34:01;;;;;;;39.30;35.10;;;3.30;99.90;;;;;;6213734;23;20407;-81
2022/12/15 13:36:52;;;;;;;39.90;36.03;;;3.10;99.90;;;;;;6214417;23;20391;-81
2022/12/15 13:39:58;;;;;;;39.33;35.40;;;3.10;99.90;;;;;;6214909;23;20443;-79
2022/12/15 13:42:36;;;;;;;42.67;38.27;;;3.10;99.90;;;;;;6214056;23;20578;-81
2022/12/15 13:45:21;;;;;;;38.30;34.53;;;3.00;99.90;;;;;;6213860;23;20455;-82
2022/12/15 13:47:54;;;;;;;41.40;37.00;;;2.80;99.90;;;;;;6214859;23;20401;-81
2022/12/15 13:50:36;;;;;;;39.80;35.83;;;2.60;99.90;;;;;;6213357;23;20399;-80
2022/12/15 13:53:09;;;;;;;41.03;37.03;;;2.70;99.90;;;;;;6213338;23;20716;-81
2022/12/15 13:55:37;;;;;;;42.87;38.47;;;2.70;99.90;;;;;;6212638;23;20476;-83
2022/12/15 13:58:13;;;;;;;41.23;36.93;;;2.80;99.90;;;;;;6212804;23;20411;-80
2022/12/15 14:00:49;;;;;;;39.40;35.40;;;2.70;99.90;;;;;;6212122;23;20929;-80
2022/12/15 14:03:16;;;;;;;41.00;36.80;;;2.90;99.90;;;;;;6215158;23;20400;-81
2022/12/15 14:05:48;;;;;;;40.00;36.00;;;3.00;99.90;;;;;;6214867;23;20448;-82
2022/12/15 14:08:17;;;;;;;42.73;38.37;;;3.00;99.90;;;;;;6219268;23;20392;-80
2022/12/15 14:10:47;;;;;;;44.90;38.97;;;2.80;99.90;;;;;;6217821;23;20498;-82
2022/12/15 14:13:20;;;;;;;42.30;38.00;;;2.90;99.90;;;;;;6220095;23;20920;-81
2022/12/15 14:15:51;;;;;;;42.33;38.07;;;3.00;99.90;;;;;;6217276;23;20388;-81
2022/12/15 14:18:24;;;;;;;41.43;37.40;;;3.20;99.90;;;;;;6216625;23;20406;-82
2022/12/15 14:20:52;;;;;;;42.90;38.23;;;3.10;99.90;;;;;;6214354;23;20469;-84
2022/12/15 14:23:20;;;;;;;40.50;36.40;;;3.00;99.90;;;;;;6215138;23;20458;-81
2022/12/15 14:26:01;;;;;;;39.90;35.73;;;3.00;99.90;;;;;;6215158;23;20449;-82
2022/12/15 14:28:32;;;;;;;41.20;37.23;;;3.00;99.90;;;;;;6215502;23;20389;-80
2022/12/15 14:31:02;;;;;;;41.40;36.93;;;2.90;99.90;;;;;;6212640;23;20417;-80
2022/12/15 14:33:30;;;;;;;40.43;36.10;;;2.80;99.90;;;;;;6212865;23;20396;-80
2022/12/15 14:35:59;;;;;;;41.30;36.93;;;2.70;99.90;;;;;;6212837;23;20402;-80
2022/12/15 14:38:31;;;;;;;39.13;35.27;;;2.80;99.90;;;;;;6213626;23;20411;-80
2022/12/15 14:41:01;;;;;;;37.43;33.60;;;2.80;99.90;;;;;;6213604;23;20714;-81
2022/12/15 14:43:32;;;;;;;35.97;32.57;;;2.80;99.90;;;;;;6213621;23;20422;-80
2022/12/15 14:46:07;;;;;;;42.73;37.20;;;2.90;99.90;;;;;;6213268;23;20431;-79
2022/12/15 14:48:37;;;;;;;42.80;37.23;;;2.90;99.90;;;;;;6213758;23;20396;-81
2022/12/15 14:51:04;;;;;;;42.97;36.20;;;2.60;99.90;;;;;;6214524;23;20408;-81
2022/12/15 14:53:34;;;;;;;39.60;35.67;;;2.80;99.90;;;;;;6214060;23;20737;-80
2022/12/15 14:56:13;;;;;;;42.80;38.40;;;2.80;99.90;;;;;;6215769;23;20910;-89
2022/12/15 14:58:42;;;;;;;37.67;34.03;;;2.90;99.90;;;;;;6220208;23;20388;-90
2022/12/15 15:01:24;;;;;;;40.70;36.40;;;2.80;99.90;;;;;;6218876;23;20675;-86
2022/12/15 15:03:59;;;;;;;38.20;34.10;;;2.60;99.90;;;;;;6221371;23;20392;-91
2022/12/15 15:06:34;;;;;;;41.03;36.23;;;2.50;99.90;;;;;;6213694;23;20452;-88
2022/12/15 15:09:22;;;;;;;38.47;34.53;;;2.40;99.90;;;;;;6214333;23;20399;-78
2022/12/15 15:11:52;;;;;;;42.23;33.70;;;2.30;99.90;;;;;;6213047;23;20852;-77
2022/12/15 15:14:24;;;;;;;40.33;35.93;;;2.20;99.90;;;;;;6212377;23;20407;-78
2022/12/15 15:17:04;;;;;;;37.80;32.80;;;2.30;99.90;;;;;;6212173;23;20476;-78
2022/12/15 15:19:33;;;;;;;38.63;33.77;;;2.20;99.90;;;;;;6212630;23;20452;-78
2022/12/15 15:22:00;;;;;;;46.73;35.20;;;2.10;99.90;;;;;;6212547;23;20443;-77
2022/12/15 15:24:34;;;;;;;37.97;32.17;;;2.30;99.90;;;;;;6212228;23;20467;-77
2022/12/15 15:27:41;;;;;;;39.47;34.83;;;2.40;99.90;;;;;;6213325;23;20427;-77
2022/12/15 15:30:21;;;;;;;44.63;35.50;;;2.40;99.90;;;;;;6208548;23;20915;-76
2022/12/15 15:32:53;;;;;;;41.70;34.80;;;2.50;99.90;;;;;;6214315;23;20398;-76
2022/12/15 15:35:20;;;;;;;47.30;36.67;;;2.50;99.90;;;;;;6214196;23;20412;-77
2022/12/15 15:37:46;;;;;;;45.87;37.00;;;2.60;99.90;;;;;;6213487;23;20412;-76
2022/12/15 15:40:15;;;;;;;41.13;36.57;;;2.80;99.90;;;;;;6214224;23;20411;-78
2022/12/15 15:42:44;;;;;;;41.17;34.90;;;2.70;99.90;;;;;;6210803;23;20552;-77
2022/12/15 15:45:13;;;;;;;46.03;36.07;;;2.70;99.90;;;;;;6212086;23;20407;-75
2022/12/15 15:47:45;;;;;;;36.67;32.80;;;2.70;99.90;;;;;;6213361;23;20407;-76
2022/12/15 15:50:14;;;;;;;36.40;32.47;;;2.80;99.90;;;;;;6213556;23;20384;-73
2022/12/15 15:52:42;;;;;;;40.13;32.23;;;2.80;99.90;;;;;;6210698;23;21046;-76
2022/12/15 15:55:13;;;;;;;41.20;33.97;;;2.80;99.90;;;;;;6212369;23;20653;-75
2022/12/15 15:57:40;;;;;;;39.67;33.37;;;2.80;99.90;;;;;;6213063;23;20417;-77
2022/12/15 16:00:15;;;;;;;34.33;30.00;;;2.80;99.90;;;;;;6212955;23;20911;-76
2022/12/15 16:02:43;;;;;;;36.67;31.03;;;2.70;99.90;;;;;;6213125;23;20395;-76
2022/12/15 16:05:10;;;;;;;41.73;32.40;;;2.80;99.90;;;;;;6212813;23;20435;-77
2022/12/15 16:07:37;;;;;;;39.30;33.70;;;2.80;99.90;;;;;;6213444;23;20878;-76
2022/12/15 16:10:12;;;;;;;42.33;35.47;;;2.80;99.90;;;;;;6213575;23;20733;-76
2022/12/15 16:12:42;;;;;;;35.37;31.70;;;2.90;99.90;;;;;;6214237;23;20396;-77
2022/12/15 16:15:14;;;;;;;38.90;33.10;;;2.90;99.90;;;;;;6213885;23;20583;-77
2022/12/15 16:17:41;;;;;;;35.60;31.90;;;2.90;99.90;;;;;;6213753;23;20385;-76
2022/12/15 16:20:12;;;;;;;40.40;32.93;;;2.80;99.90;;;;;;6213147;23;20437;-75
2022/12/15 16:22:40;;;;;;;33.90;30.47;;;2.90;99.90;;;;;;6213569;23;20397;-76
2022/12/15 16:25:14;;;;;;;38.60;33.57;;;2.80;99.90;;;;;;6213902;23;20409;-75
2022/12/15 16:27:41;;;;;;;33.23;28.60;;;2.90;99.90;;;;;;6213355;23;20424;-76
2022/12/15 16:30:15;;;;;;;39.03;33.13;;;2.90;99.90;;;;;;6213163;23;20750;-76
2022/12/15 16:32:42;;;;;;;33.90;30.20;;;2.90;99.90;;;;;;6213064;23;20751;-76
2022/12/15 16:35:11;;;;;;;35.27;30.83;;;2.90;99.90;;;;;;6212756;23;20467;-76
2022/12/15 16:37:38;;;;;;;43.43;32.00;;;2.80;99.90;;;;;;6212612;23;20404;-75
2022/12/15 16:40:15;;;;;;;34.40;30.43;;;2.90;99.90;;;;;;6212912;23;20408;-76
2022/12/15 16:42:41;;;;;;;34.20;30.70;;;2.90;99.90;;;;;;6212172;23;20431;-76
2022/12/15 16:45:16;;;;;;;41.17;32.93;;;3.00;99.90;;;;;;6212588;23;20408;-76
2022/12/15 16:47:43;;;;;;;35.23;31.43;;;3.00;99.90;;;;;;6212276;23;20461;-74
2022/12/15 16:50:14;;;;;;;34.07;30.47;;;2.80;99.90;;;;;;6212353;23;21060;-75
2022/12/15 16:52:42;;;;;;;39.13;33.33;;;2.90;99.90;;;;;;6212393;23;20397;-76
2022/12/15 16:55:18;;;;;;;34.17;30.40;;;2.90;99.90;;;;;;6213094;23;20407;-76
2022/12/15 16:57:45;;;;;;;36.27;32.47;;;3.00;99.90;;;;;;6213314;23;20398;-75
2022/12/15 17:00:18;;;;;;;32.10;28.60;;;2.90;99.90;;;;;;6213119;23;20780;-76
2022/12/15 17:02:44;;;;;;;32.93;29.40;;;2.90;99.90;;;;;;6213103;23;20405;-77
2022/12/15 17:05:13;;;;;;;34.87;31.17;;;2.90;99.90;;;;;;6212812;23;20403;-77
2022/12/15 17:07:40;;;;;;;36.30;28.80;;;2.90;99.90;;;;;;6212802;23;20972;-75
2022/12/15 17:10:07;;;;;;;33.43;29.40;;;2.80;99.90;;;;;;6212585;23;20415;-75
2022/12/15 17:12:34;;;;;;;32.90;29.40;;;2.90;99.90;;;;;;6213718;23;20401;-76
2022/12/15 17:15:02;;;;;;;34.23;30.67;;;2.90;99.90;;;;;;6213204;23;20420;-77
2022/12/15 17:17:30;;;;;;;35.27;28.30;;;3.00;99.90;;;;;;6213289;23;20412;-76
2022/12/15 17:19:57;;;;;;;31.07;27.70;;;3.00;99.90;;;;;;6211848;23;20439;-76
2022/12/15 17:22:26;;;;;;;35.57;27.10;;;3.00;99.90;;;;;;6212865;23;20866;-75
2022/12/15 17:24:53;;;;;;;32.20;26.93;;;2.70;99.90;;;;;;6212411;23;20414;-77
2022/12/15 17:27:23;;;;;;;28.83;25.70;;;2.50;99.90;;;;;;6212007;23;20437;-76
2022/12/15 17:29:50;;;;;;;29.80;26.37;;;2.40;99.90;;;;;;6213248;23;20719;-76
2022/12/15 17:32:17;;;;;;;29.10;24.40;;;2.40;99.90;;;;;;6212107;23;20914;-74
2022/12/15 17:34:43;;;;;;;32.60;25.77;;;2.40;99.90;;;;;;6212621;23;20411;-76
2022/12/15 17:37:13;;;;;;;26.43;23.60;;;2.40;99.90;;;;;;6213266;23;20725;-76
2022/12/15 17:39:46;;;;;;;29.30;24.73;;;2.50;99.90;;;;;;6211700;23;20412;-76
2022/12/15 17:42:18;;;;;;;29.10;25.63;;;2.30;99.90;;;;;;6212874;23;20446;-76
2022/12/15 17:44:46;;;;;;;28.70;25.33;;;2.40;99.90;;;;;;6212462;23;20390;-76
2022/12/15 17:47:13;;;;;;;27.90;23.83;;;2.60;99.90;;;;;;6212428;23;20443;-76
2022/12/15 17:49:40;;;;;;;32.50;25.23;;;2.50;99.90;;;;;;6211769;23;20412;-77
2022/12/15 17:52:22;;;;;;;29.20;24.07;;;2.50;99.90;;;;;;6213266;23;20417;-76
2022/12/15 17:54:50;;;;;;;30.60;23.87;;;2.50;99.90;;;;;;6212827;23;20399;-75
2022/12/15 17:57:17;;;;;;;26.27;23.33;;;2.40;99.90;;;;;;6213620;23;20407;-76
2022/12/15 17:59:44;;;;;;;29.80;26.60;;;2.40;99.90;;;;;;6211976;23;20524;-76
2022/12/15 18:02:12;;;;;;;29.23;24.10;;;2.40;99.90;;;;;;6211729;23;20658;-76
2022/12/15 18:04:39;;;;;;;32.10;27.80;;;2.50;99.90;;;;;;6210053;23;20411;-75
2022/12/15 18:07:08;;;;;;;28.53;24.60;;;2.40;99.90;;;;;;6212363;23;20444;-76
2022/12/15 18:09:35;;;;;;;31.17;25.20;;;2.40;99.90;;;;;;6211698;23;20742;-75
2022/12/15 18:12:03;;;;;;;30.50;24.20;;;2.40;99.90;;;;;;6213149;23;20423;-75
2022/12/15 18:14:30;;;;;;;36.73;27.10;;;2.30;99.90;;;;;;6212601;23;20405;-76
2022/12/15 18:16:56;;;;;;;28.00;25.07;;;2.40;99.90;;;;;;6212846;23;20430;-75
2022/12/15 18:19:25;;;;;;;30.93;26.33;;;2.50;99.90;;;;;;6212733;23;20426;-77
2022/12/15 18:21:52;;;;;;;29.13;26.07;;;2.50;99.90;;;;;;6211536;23;20816;-75
2022/12/15 18:24:20;;;;;;;30.17;25.50;;;2.40;99.90;;;;;;6212238;23;20761;-76
2022/12/15 18:26:47;;;;;;;31.07;25.20;;;2.40;99.90;;;;;;6210135;23;20660;-77
2022/12/15 18:29:27;;;;;;;37.37;27.83;;;2.40;99.90;;;;;;6210478;23;20435;-77
2022/12/15 18:31:55;;;;;;;31.13;25.53;;;2.40;99.90;;;;;;6211489;23;20736;-75